Terminal Aerodrome Forecast
Issued by NWS

Home | Current Version | Previous Version | Text Only | Print | Product List | Glossary On
Versions: 1 2 3 4 5 6 7 8 9 10 11 12 13 14
000
FTUS43 KDTX 270521
TAFDET
TAF
KDET 270521Z 2706/2806 20004KT P6SM SCT060 BKN200
     FM271000 19004KT 5SM BR SCT025 BKN200
     FM271300 20007KT P6SM SCT035
     FM271600 19010KT P6SM BKN040 PROB30 2721/2724 6SM TSRA OVC035CB
     FM280100 20006KT P6SM SCT060 BKN200=

USA.gov is the U.S. government's official web portal to all federal, state and local government web resources and services.